OICK  Khoram Abad Airport

Add Bookmark

Iran

Status IATA
Operational KHD
Latitude Longitude
33° 26' 7" N 48° 16' 58" E
33.435398 48.282902
Local (DST + 5) UTC (GMT + 4)
Sep 1, 2014 12:02 Sep 1, 2014 07:32
Sunrise-Sunset Local UTC
Begin Civil Twilight 06:24 01:54
Sunrise 06:49 02:19
Sunset 07:43 15:13
End Civil Twilight 08:09 15:39

Current Weather

METAR Observed VFR
OICK 010700Z 00000KT CAVOK 34/01 Q1012 Mon, Sep 1, 2014 @ 07:00 UTC
(32 Minutes ago)
Visual Flight Rules
Wind Visibility Clouds Conditions
Calm 10 km or more
  • Clear skies
  • No significant weather
Temperatures Readings Precipitation
Current Temp 34°C (93°F)
Dewpoint 1°C (34°F)
Humidity 12%
Altimeter 29.88"Hg
Sea Level Pressure 1012mb
Field Elevation 3789.37'
None Recorded

Additional weather within a 92.6km radius of OICK

Map ICAO Location
OICJ 67.2km N (040°)

24 Hour Weather History

Loading
-

24 Hour Weather Graphs

Loading
-

CheckWX.com is intended as a tool to help pilots better visualize weather data. It is not intended as a substitute for an official weather briefing obtained from a Flight Service Station. CheckWX.com does not meet the FAA requirements for an official pre-flight weather briefing. Therefore, it's important that pilots still call and obtain an official FSS pre-flight weather briefing.